createdAt,value
2022-08-31T00:03:45.793Z,102430
2022-08-31T00:08:45.797Z,102430
2022-08-31T00:13:45.827Z,102430
2022-08-31T00:18:45.800Z,102430
2022-08-31T00:23:45.818Z,102430
2022-08-31T00:28:45.812Z,102430
2022-08-31T00:33:45.808Z,102430
2022-08-31T00:38:45.827Z,102430
2022-08-31T00:43:45.839Z,102430
2022-08-31T00:48:45.824Z,102420
2022-08-31T00:53:45.835Z,102420
2022-08-31T00:58:45.826Z,102420
2022-08-31T01:03:45.829Z,102420
2022-08-31T01:08:45.833Z,102430
2022-08-31T01:13:45.855Z,102430
2022-08-31T01:18:45.841Z,102430
2022-08-31T01:23:45.853Z,102430
2022-08-31T01:28:45.852Z,102430
2022-08-31T01:33:45.846Z,102430
2022-08-31T01:38:45.849Z,102430
2022-08-31T01:43:45.882Z,102430
2022-08-31T01:48:45.885Z,102430
2022-08-31T01:53:48.486Z,102440
2022-08-31T01:58:45.863Z,102450
2022-08-31T02:03:45.870Z,102440
2022-08-31T02:08:45.871Z,102440
2022-08-31T02:13:45.906Z,102440
2022-08-31T02:18:45.875Z,102430
2022-08-31T02:23:45.892Z,102440
2022-08-31T02:28:45.877Z,102440
2022-08-31T02:33:45.880Z,102430
2022-08-31T02:38:45.884Z,102440
2022-08-31T02:43:45.903Z,102440
2022-08-31T02:48:45.893Z,102440
2022-08-31T02:53:45.911Z,102440
2022-08-31T02:58:45.907Z,102450
2022-08-31T03:03:46.509Z,102450
2022-08-31T03:08:45.911Z,102450
2022-08-31T03:13:45.934Z,102450
2022-08-31T03:18:45.914Z,102450
2022-08-31T03:23:45.925Z,102440
2022-08-31T03:28:45.916Z,102440
2022-08-31T03:33:45.927Z,102450
2022-08-31T03:38:45.920Z,102450
2022-08-31T03:43:45.952Z,102450
2022-08-31T03:48:45.935Z,102450
2022-08-31T03:53:45.945Z,102450
2022-08-31T03:58:45.934Z,102450
2022-08-31T04:03:45.939Z,102460
2022-08-31T04:08:45.948Z,102460
2022-08-31T04:13:45.969Z,102460
2022-08-31T04:18:45.948Z,102460
2022-08-31T04:23:45.956Z,102470
2022-08-31T04:28:45.955Z,102470
2022-08-31T04:33:45.953Z,102470
2022-08-31T04:38:45.956Z,102470
2022-08-31T04:43:45.974Z,102470
2022-08-31T04:48:45.962Z,102470
2022-08-31T04:53:45.973Z,102470
2022-08-31T04:58:45.968Z,102470
2022-08-31T05:03:45.971Z,102480
2022-08-31T05:08:45.977Z,102480
2022-08-31T05:13:46.003Z,102480
2022-08-31T05:18:45.981Z,102480
2022-08-31T05:23:46.001Z,102480
2022-08-31T05:28:45.987Z,102480
2022-08-31T05:33:45.991Z,102480
2022-08-31T05:38:45.998Z,102490
2022-08-31T05:43:46.016Z,102490
2022-08-31T05:48:49.140Z,102490
2022-08-31T05:53:46.065Z,102490
2022-08-31T05:58:46.172Z,102490
2022-08-31T06:03:46.004Z,102490
2022-08-31T06:08:46.007Z,102490
2022-08-31T06:13:46.030Z,102510
2022-08-31T06:18:46.019Z,102500
2022-08-31T06:23:46.032Z,102510
2022-08-31T06:28:46.019Z,102510
2022-08-31T06:33:46.023Z,102520
2022-08-31T06:38:46.026Z,102520
2022-08-31T06:43:46.052Z,102520
2022-08-31T06:48:46.036Z,102520
2022-08-31T06:53:46.050Z,102520
2022-08-31T06:58:46.059Z,102520
2022-08-31T07:03:46.043Z,102520
2022-08-31T07:08:46.079Z,102520
2022-08-31T07:13:46.099Z,102540
2022-08-31T07:18:46.081Z,102540
2022-08-31T07:23:46.098Z,102540
2022-08-31T07:28:46.095Z,102550
2022-08-31T07:33:46.086Z,102560
2022-08-31T07:38:46.096Z,102560
2022-08-31T07:43:46.209Z,102550
2022-08-31T07:48:46.097Z,102550
2022-08-31T07:53:46.108Z,102550
2022-08-31T07:58:46.104Z,102540
2022-08-31T08:03:46.105Z,102550
2022-08-31T08:08:57.039Z,102550
2022-08-31T08:13:46.108Z,102560
2022-08-31T08:18:46.125Z,102550
2022-08-31T08:23:46.128Z,102560
2022-08-31T08:28:46.122Z,102560
2022-08-31T08:33:46.129Z,102560
2022-08-31T08:38:46.126Z,102560
2022-08-31T08:43:52.520Z,102560
2022-08-31T08:48:46.127Z,102550
2022-08-31T08:53:46.216Z,102550
2022-08-31T08:58:46.122Z,102550
2022-08-31T09:03:46.126Z,102540
2022-08-31T09:08:46.126Z,102540
2022-08-31T09:13:46.133Z,102540
2022-08-31T09:18:46.170Z,102540
2022-08-31T09:23:46.137Z,102550
2022-08-31T09:28:46.144Z,102540
2022-08-31T09:33:46.134Z,102530
2022-08-31T09:38:46.137Z,102530
2022-08-31T09:43:46.147Z,102530
2022-08-31T09:48:46.175Z,102530
2022-08-31T09:53:46.251Z,102530
2022-08-31T09:58:46.159Z,102530
2022-08-31T10:03:46.153Z,102530
2022-08-31T10:08:46.156Z,102520
2022-08-31T10:13:46.164Z,102520
2022-08-31T10:18:46.187Z,102530
2022-08-31T10:23:56.662Z,102510
2022-08-31T10:28:46.918Z,102510
2022-08-31T10:33:46.172Z,102510
2022-08-31T10:38:46.172Z,102510
2022-08-31T10:43:46.186Z,102510
2022-08-31T10:48:46.212Z,102500
2022-08-31T10:53:46.187Z,102500
2022-08-31T10:58:46.202Z,102490
2022-08-31T11:03:46.191Z,102490
2022-08-31T11:08:46.186Z,102490
2022-08-31T11:13:49.178Z,102500
2022-08-31T11:18:46.223Z,102500
2022-08-31T11:23:46.200Z,102490
2022-08-31T11:28:46.216Z,102480
2022-08-31T11:34:05.999Z,102480
2022-08-31T11:38:46.212Z,102480
2022-08-31T11:43:46.214Z,102470
2022-08-31T11:48:46.237Z,102470
2022-08-31T11:53:46.215Z,102470
2022-08-31T11:58:46.300Z,102470
2022-08-31T12:03:46.228Z,102460
2022-08-31T12:08:46.232Z,102450
2022-08-31T12:13:46.245Z,102450
2022-08-31T12:18:46.264Z,102450
2022-08-31T12:23:46.245Z,102440
2022-08-31T12:28:46.254Z,102450
2022-08-31T12:33:46.245Z,102430
2022-08-31T12:38:46.248Z,102440
2022-08-31T12:43:46.250Z,102420
2022-08-31T12:48:46.286Z,102430
2022-08-31T12:53:46.252Z,102430
2022-08-31T12:58:46.273Z,102420
2022-08-31T13:03:46.262Z,102420
2022-08-31T13:08:46.274Z,102410
2022-08-31T13:13:46.269Z,102400
2022-08-31T13:18:46.305Z,102390
2022-08-31T13:23:46.275Z,102390
2022-08-31T13:28:46.297Z,102380
2022-08-31T13:33:46.282Z,102380
2022-08-31T13:38:46.283Z,102370
2022-08-31T13:43:46.292Z,102370
2022-08-31T13:48:46.306Z,102380
2022-08-31T13:53:46.292Z,102370
2022-08-31T13:58:46.305Z,102360
2022-08-31T14:03:46.686Z,102360
2022-08-31T14:08:46.302Z,102360
2022-08-31T14:13:46.313Z,102360
2022-08-31T14:18:46.325Z,102360
2022-08-31T14:23:46.322Z,102360
2022-08-31T14:28:46.326Z,102350
2022-08-31T14:33:46.318Z,102350
2022-08-31T14:38:46.324Z,102350
2022-08-31T14:43:46.332Z,102350
2022-08-31T14:48:46.350Z,102350
2022-08-31T14:53:46.332Z,102340
2022-08-31T14:58:46.453Z,102330
2022-08-31T15:03:46.343Z,102330
2022-08-31T15:08:46.340Z,102330
2022-08-31T15:13:46.347Z,102330
2022-08-31T15:18:46.371Z,102330
2022-08-31T15:23:46.349Z,102330
2022-08-31T15:28:46.362Z,102320
2022-08-31T15:33:46.363Z,102330
2022-08-31T15:38:46.355Z,102310
2022-08-31T15:43:46.365Z,102330
2022-08-31T15:48:46.386Z,102320
2022-08-31T15:54:00.856Z,102320
2022-08-31T15:58:46.392Z,102310
2022-08-31T16:03:46.378Z,102310
2022-08-31T16:08:46.376Z,102310
2022-08-31T16:13:46.378Z,102310
2022-08-31T16:18:46.404Z,102300
2022-08-31T16:23:46.389Z,102300
2022-08-31T16:28:46.457Z,102300
2022-08-31T16:33:46.391Z,102310
2022-08-31T16:38:46.393Z,102300
2022-08-31T16:43:58.200Z,102290
2022-08-31T16:48:46.416Z,102290
2022-08-31T16:53:46.404Z,102290
2022-08-31T16:58:52.360Z,102290
2022-08-31T17:03:46.419Z,102290
2022-08-31T17:08:46.419Z,102290
2022-08-31T17:13:46.417Z,102300
2022-08-31T17:18:46.447Z,102300
2022-08-31T17:23:46.423Z,102300
2022-08-31T17:28:46.457Z,102300
2022-08-31T17:33:46.437Z,102300
2022-08-31T17:38:46.428Z,102310
2022-08-31T17:43:46.432Z,102310
2022-08-31T17:48:46.474Z,102310
2022-08-31T17:53:46.442Z,102310
2022-08-31T17:58:46.460Z,102310
2022-08-31T18:03:46.668Z,102320
2022-08-31T18:08:46.452Z,102320
2022-08-31T18:13:48.610Z,102320
2022-08-31T18:18:46.467Z,102330
2022-08-31T18:23:46.459Z,102330
2022-08-31T18:28:46.590Z,102330
2022-08-31T18:33:46.468Z,102330
2022-08-31T18:38:46.475Z,102340
2022-08-31T18:43:46.470Z,102350
2022-08-31T18:48:46.502Z,102350
2022-08-31T18:53:46.486Z,102360
2022-08-31T18:58:46.489Z,102360
2022-08-31T19:03:46.483Z,102370
2022-08-31T19:08:46.485Z,102370
2022-08-31T19:13:46.491Z,102370
2022-08-31T19:18:46.519Z,102380
2022-08-31T19:23:46.501Z,102390
2022-08-31T19:28:46.508Z,102390
2022-08-31T19:33:46.505Z,102390
2022-08-31T19:38:46.514Z,102400
2022-08-31T19:43:53.745Z,102400
2022-08-31T19:48:46.539Z,102400
2022-08-31T19:53:46.516Z,102410
2022-08-31T19:58:46.631Z,102410
2022-08-31T20:03:46.523Z,102420
2022-08-31T20:08:46.522Z,102430
2022-08-31T20:13:46.544Z,102430
2022-08-31T20:18:46.574Z,102430
2022-08-31T20:23:46.547Z,102440
2022-08-31T20:28:46.565Z,102430
2022-08-31T20:33:46.538Z,102440
2022-08-31T20:38:46.551Z,102440
2022-08-31T20:43:46.548Z,102440
2022-08-31T20:48:46.572Z,102440
2022-08-31T20:53:46.553Z,102440
2022-08-31T20:58:46.571Z,102440
2022-08-31T21:03:46.560Z,102440
2022-08-31T21:08:46.559Z,102440
2022-08-31T21:13:46.599Z,102440
2022-08-31T21:18:46.595Z,102430
2022-08-31T21:23:46.568Z,102430
2022-08-31T21:28:46.684Z,102430
2022-08-31T21:33:46.584Z,102430
2022-08-31T21:38:46.590Z,102440
2022-08-31T21:43:46.587Z,102440
2022-08-31T21:48:46.610Z,102450
2022-08-31T21:53:46.592Z,102450
2022-08-31T21:58:46.703Z,102440
2022-08-31T22:03:46.595Z,102440
2022-08-31T22:08:46.615Z,102440
2022-08-31T22:13:46.604Z,102440
2022-08-31T22:19:00.786Z,102440
2022-08-31T22:23:46.603Z,102440
2022-08-31T22:28:46.721Z,102440
2022-08-31T22:33:47.350Z,102440
2022-08-31T22:38:46.615Z,102440
2022-08-31T22:43:46.620Z,102440
2022-08-31T22:48:46.672Z,102440
2022-08-31T22:53:46.626Z,102440
2022-08-31T22:58:46.641Z,102440
2022-08-31T23:03:46.665Z,102430
2022-08-31T23:08:46.631Z,102430
2022-08-31T23:13:46.639Z,102440
2022-08-31T23:18:46.677Z,102430
2022-08-31T23:23:46.642Z,102430
2022-08-31T23:28:46.659Z,102430
2022-08-31T23:33:46.667Z,102420
2022-08-31T23:38:46.653Z,102420
2022-08-31T23:43:46.656Z,102420
2022-08-31T23:48:46.673Z,102420
2022-08-31T23:53:46.668Z,102410
2022-08-31T23:58:46.770Z,102410
